sensor_id;sensor_type;location;lat;lon;timestamp;pressure;altitude;pressure_sealevel;temperature;humidity
49515;BME280;35415;47.870;16.058;2023-01-29T00:02:02;98199.81;;;0.15;92.85
49515;BME280;35415;47.870;16.058;2023-01-29T00:04:31;98180.28;;;0.02;92.95
49515;BME280;35415;47.870;16.058;2023-01-29T00:07:06;98191.22;;;0.13;92.72
49515;BME280;35415;47.870;16.058;2023-01-29T00:09:36;98196.16;;;0.16;92.82
49515;BME280;35415;47.870;16.058;2023-01-29T00:12:05;98154.69;;;-0.06;92.48
49515;BME280;35415;47.870;16.058;2023-01-29T00:14:33;98190.53;;;0.19;92.40
49515;BME280;35415;47.870;16.058;2023-01-29T00:17:00;98172.69;;;0.13;92.57
49515;BME280;35415;47.870;16.058;2023-01-29T00:19:28;98162.84;;;0.07;92.57
49515;BME280;35415;47.870;16.058;2023-01-29T00:21:55;98187.56;;;0.14;92.42
49515;BME280;35415;47.870;16.058;2023-01-29T00:24:26;98178.81;;;0.14;92.73
49515;BME280;35415;47.870;16.058;2023-01-29T00:26:53;98147.56;;;-0.06;92.65
49515;BME280;35415;47.870;16.058;2023-01-29T00:29:20;98187.56;;;0.14;92.01
49515;BME280;35415;47.870;16.058;2023-01-29T00:31:47;98179.00;;;0.12;91.90
49515;BME280;35415;47.870;16.058;2023-01-29T00:34:14;98188.56;;;0.13;92.01
49515;BME280;35415;47.870;16.058;2023-01-29T00:36:41;98183.00;;;0.08;91.93
49515;BME280;35415;47.870;16.058;2023-01-29T00:39:10;98188.47;;;0.07;91.96
49515;BME280;35415;47.870;16.058;2023-01-29T00:41:40;98202.81;;;0.12;91.32
49515;BME280;35415;47.870;16.058;2023-01-29T00:44:24;98192.41;;;0.11;91.50
49515;BME280;35415;47.870;16.058;2023-01-29T00:47:09;98192.94;;;0.06;91.18
49515;BME280;35415;47.870;16.058;2023-01-29T00:49:55;98191.75;;;0.09;91.67
49515;BME280;35415;47.870;16.058;2023-01-29T00:52:23;98200.53;;;0.09;91.44
49515;BME280;35415;47.870;16.058;2023-01-29T00:54:50;98174.50;;;-0.02;90.74
49515;BME280;35415;47.870;16.058;2023-01-29T00:57:19;98174.66;;;-0.04;90.55
49515;BME280;35415;47.870;16.058;2023-01-29T00:59:46;98192.59;;;0.09;90.32
49515;BME280;35415;47.870;16.058;2023-01-29T01:02:14;98201.53;;;0.08;90.29
49515;BME280;35415;47.870;16.058;2023-01-29T01:04:58;98197.25;;;0.07;89.98
49515;BME280;35415;47.870;16.058;2023-01-29T01:07:27;98171.09;;;-0.11;89.69
49515;BME280;35415;47.870;16.058;2023-01-29T01:09:57;98185.84;;;0.07;90.36
49515;BME280;35415;47.870;16.058;2023-01-29T01:12:42;98194.59;;;0.07;89.87
49515;BME280;35415;47.870;16.058;2023-01-29T01:15:10;98202.72;;;0.06;89.43
49515;BME280;35415;47.870;16.058;2023-01-29T01:17:37;98202.72;;;0.06;89.23
49515;BME280;35415;47.870;16.058;2023-01-29T01:20:04;98196.78;;;0.04;89.77
49515;BME280;35415;47.870;16.058;2023-01-29T01:22:32;98191.19;;;-0.02;89.47
49515;BME280;35415;47.870;16.058;2023-01-29T01:25:00;98192.34;;;-0.04;89.48
49515;BME280;35415;47.870;16.058;2023-01-29T01:27:27;98195.97;;;0.03;89.06
49515;BME280;35415;47.870;16.058;2023-01-29T01:29:55;98203.25;;;0.01;89.35
49515;BME280;35415;47.870;16.058;2023-01-29T01:32:22;98204.06;;;0.02;89.33
49515;BME280;35415;47.870;16.058;2023-01-29T01:34:51;98203.25;;;0.01;89.12
49515;BME280;35415;47.870;16.058;2023-01-29T01:37:18;98194.81;;;-0.03;88.89
49515;BME280;35415;47.870;16.058;2023-01-29T01:39:46;98161.75;;;-0.21;89.13
49515;BME280;35415;47.870;16.058;2023-01-29T01:42:13;98192.53;;;-0.06;89.69
49515;BME280;35415;47.870;16.058;2023-01-29T01:44:58;98192.19;;;-0.03;89.40
49515;BME280;35415;47.870;16.058;2023-01-29T01:47:30;98195.81;;;-0.04;89.58
49515;BME280;35415;47.870;16.058;2023-01-29T01:50:03;98191.19;;;-0.02;89.35
49515;BME280;35415;47.870;16.058;2023-01-29T01:52:34;98188.06;;;-0.05;89.45
49515;BME280;35415;47.870;16.058;2023-01-29T01:55:04;98192.53;;;-0.06;90.00
49515;BME280;35415;47.870;16.058;2023-01-29T01:57:32;98188.25;;;-0.07;89.68
49515;BME280;35415;47.870;16.058;2023-01-29T02:00:05;98161.28;;;-0.25;89.79
49515;BME280;35415;47.870;16.058;2023-01-29T02:02:37;98189.63;;;-0.11;89.96
49515;BME280;35415;47.870;16.058;2023-01-29T02:05:22;98182.41;;;-0.17;89.96
49515;BME280;35415;47.870;16.058;2023-01-29T02:08:08;98197.38;;;-0.09;90.29
49515;BME280;35415;47.870;16.058;2023-01-29T02:10:52;98197.19;;;-0.08;90.15
49515;BME280;35415;47.870;16.058;2023-01-29T02:13:20;98193.72;;;-0.08;89.80
49515;BME280;35415;47.870;16.058;2023-01-29T02:15:49;98185.69;;;-0.15;90.00
49515;BME280;35415;47.870;16.058;2023-01-29T02:18:18;98191.44;;;-0.11;90.23
49515;BME280;35415;47.870;16.058;2023-01-29T02:20:52;98197.72;;;-0.12;90.54
49515;BME280;35415;47.870;16.058;2023-01-29T02:23:51;98188.50;;;-0.16;90.26
49515;BME280;35415;47.870;16.058;2023-01-29T02:26:43;98189.47;;;-0.17;90.60
49515;BME280;35415;47.870;16.058;2023-01-29T02:29:18;98202.84;;;-0.11;90.64
49515;BME280;35415;47.870;16.058;2023-01-29T02:32:00;98181.09;;;-0.21;90.71
49515;BME280;35415;47.870;16.058;2023-01-29T02:34:38;98198.72;;;-0.13;90.83
49515;BME280;35415;47.870;16.058;2023-01-29T02:37:28;98179.34;;;-0.28;90.86
49515;BME280;35415;47.870;16.058;2023-01-29T02:40:06;98169.63;;;-0.36;90.94
49515;BME280;35415;47.870;16.058;2023-01-29T02:42:43;98198.25;;;-0.17;91.38
49515;BME280;35415;47.870;16.058;2023-01-29T02:45:17;98191.19;;;-0.24;91.46
49515;BME280;35415;47.870;16.058;2023-01-29T02:47:49;98205.34;;;-0.17;91.05
49515;BME280;35415;47.870;16.058;2023-01-29T02:50:27;98181.34;;;-0.31;91.22
49515;BME280;35415;47.870;16.058;2023-01-29T02:53:00;98197.94;;;-0.22;91.55
49515;BME280;35415;47.870;16.058;2023-01-29T02:55:33;98190.38;;;-0.25;91.25
49515;BME280;35415;47.870;16.058;2023-01-29T02:58:06;98185.81;;;-0.31;91.36
49515;BME280;35415;47.870;16.058;2023-01-29T03:00:39;98203.69;;;-0.18;91.57
49515;BME280;35415;47.870;16.058;2023-01-29T03:03:12;98200.91;;;-0.17;91.46
49515;BME280;35415;47.870;16.058;2023-01-29T03:05:46;98206.03;;;-0.15;91.50
49515;BME280;35415;47.870;16.058;2023-01-29T03:08:22;98195.94;;;-0.20;91.68
49515;BME280;35415;47.870;16.058;2023-01-29T03:11:03;98208.66;;;-0.15;91.58
49515;BME280;35415;47.870;16.058;2023-01-29T03:13:41;98190.91;;;-0.29;91.15
49515;BME280;35415;47.870;16.058;2023-01-29T03:16:17;98211.94;;;-0.13;90.88
49515;BME280;35415;47.870;16.058;2023-01-29T03:18:50;98218.25;;;-0.14;91.18
49515;BME280;35415;47.870;16.058;2023-01-29T03:21:27;98210.16;;;-0.21;90.62
49515;BME280;35415;47.870;16.058;2023-01-29T03:24:15;98211.16;;;-0.22;90.72
49515;BME280;35415;47.870;16.058;2023-01-29T03:27:04;98216.91;;;-0.18;91.08
49515;BME280;35415;47.870;16.058;2023-01-29T03:29:52;98222.22;;;-0.18;90.96
49515;BME280;35415;47.870;16.058;2023-01-29T03:32:39;98223.03;;;-0.18;90.64
49515;BME280;35415;47.870;16.058;2023-01-29T03:35:09;98210.53;;;-0.24;90.13
49515;BME280;35415;47.870;16.058;2023-01-29T03:37:41;98219.56;;;-0.18;89.76
49515;BME280;35415;47.870;16.058;2023-01-29T03:40:12;98217.28;;;-0.21;89.91
49515;BME280;35415;47.870;16.058;2023-01-29T03:42:58;98183.56;;;-0.42;89.50
49515;BME280;35415;47.870;16.058;2023-01-29T03:45:35;98222.16;;;-0.33;89.83
49515;BME280;35415;47.870;16.058;2023-01-29T03:48:11;98208.28;;;-0.35;89.74
49515;BME280;35415;47.870;16.058;2023-01-29T03:50:53;98195.94;;;-0.43;89.43
49515;BME280;35415;47.870;16.058;2023-01-29T03:53:26;98205.81;;;-0.37;90.01
49515;BME280;35415;47.870;16.058;2023-01-29T03:55:57;98195.47;;;-0.46;89.84
49515;BME280;35415;47.870;16.058;2023-01-29T03:58:34;98206.44;;;-0.35;89.71
49515;BME280;35415;47.870;16.058;2023-01-29T04:01:09;98186.41;;;-0.52;89.82
49515;BME280;35415;47.870;16.058;2023-01-29T04:03:42;98197.66;;;-0.50;90.08
49515;BME280;35415;47.870;16.058;2023-01-29T04:06:15;98208.16;;;-0.42;89.94
49515;BME280;35415;47.870;16.058;2023-01-29T04:08:50;98194.94;;;-0.42;90.09
49515;BME280;35415;47.870;16.058;2023-01-29T04:11:21;98173.72;;;-0.56;89.85
49515;BME280;35415;47.870;16.058;2023-01-29T04:13:49;98175.00;;;-0.52;89.99
49515;BME280;35415;47.870;16.058;2023-01-29T04:16:21;98162.34;;;-0.57;90.21
49515;BME280;35415;47.870;16.058;2023-01-29T04:18:52;98175.50;;;-0.49;90.13
49515;BME280;35415;47.870;16.058;2023-01-29T04:21:21;98173.19;;;-0.52;90.45
49515;BME280;35415;47.870;16.058;2023-01-29T04:23:48;98169.25;;;-0.56;90.36
49515;BME280;35415;47.870;16.058;2023-01-29T04:26:27;98171.38;;;-0.51;90.67
49515;BME280;35415;47.870;16.058;2023-01-29T04:29:08;98160.97;;;-0.53;90.85
49515;BME280;35415;47.870;16.058;2023-01-29T04:31:44;98151.22;;;-0.52;90.96
49515;BME280;35415;47.870;16.058;2023-01-29T04:34:20;98148.59;;;-0.52;91.04
49515;BME280;35415;47.870;16.058;2023-01-29T04:36:58;98148.59;;;-0.52;90.80
49515;BME280;35415;47.870;16.058;2023-01-29T04:39:33;98135.72;;;-0.55;91.04
49515;BME280;35415;47.870;16.058;2023-01-29T04:42:12;98146.13;;;-0.54;91.19
49515;BME280;35415;47.870;16.058;2023-01-29T04:44:46;98143.72;;;-0.64;91.04
49515;BME280;35415;47.870;16.058;2023-01-29T04:47:20;98116.34;;;-0.71;91.23
49515;BME280;35415;47.870;16.058;2023-01-29T04:50:01;98132.97;;;-0.62;91.08
49515;BME280;35415;47.870;16.058;2023-01-29T04:52:35;98143.31;;;-0.52;90.82
49515;BME280;35415;47.870;16.058;2023-01-29T04:55:09;98144.84;;;-0.58;90.92
49515;BME280;35415;47.870;16.058;2023-01-29T04:57:44;98158.69;;;-0.56;91.01
49515;BME280;35415;47.870;16.058;2023-01-29T05:00:17;98160.50;;;-0.56;90.75
49515;BME280;35415;47.870;16.058;2023-01-29T05:02:46;98158.75;;;-0.64;90.77
49515;BME280;35415;47.870;16.058;2023-01-29T05:05:17;98150.22;;;-0.74;90.66
49515;BME280;35415;47.870;16.058;2023-01-29T05:07:47;98162.22;;;-0.64;90.88
49515;BME280;35415;47.870;16.058;2023-01-29T05:10:17;98170.19;;;-0.72;90.85
49515;BME280;35415;47.870;16.058;2023-01-29T05:12:48;98165.25;;;-0.75;91.07
49515;BME280;35415;47.870;16.058;2023-01-29T05:15:20;98166.41;;;-0.77;91.33
49515;BME280;35415;47.870;16.058;2023-01-29T05:17:49;98172.97;;;-0.65;91.27
49515;BME280;35415;47.870;16.058;2023-01-29T05:20:20;98161.13;;;-0.77;91.48
49515;BME280;35415;47.870;16.058;2023-01-29T05:22:47;98151.47;;;-0.93;nan
49515;BME280;35415;47.870;16.058;2023-01-29T05:25:21;98184.75;;;-0.76;91.74
49515;BME280;35415;47.870;16.058;2023-01-29T05:27:49;98147.72;;;-0.99;91.85
49515;BME280;35415;47.870;16.058;2023-01-29T05:30:34;98164.81;;;-0.86;91.75
49515;BME280;35415;47.870;16.058;2023-01-29T05:33:02;98167.34;;;-1.01;92.00
49515;BME280;35415;47.870;16.058;2023-01-29T05:35:31;98178.66;;;-0.84;92.22
49515;BME280;35415;47.870;16.058;2023-01-29T05:38:00;98189.41;;;-0.86;92.08
49515;BME280;35415;47.870;16.058;2023-01-29T05:40:27;98163.69;;;-0.92;92.45
49515;BME280;35415;47.870;16.058;2023-01-29T05:42:54;98167.63;;;-0.88;92.32
49515;BME280;35415;47.870;16.058;2023-01-29T05:45:21;98172.09;;;-0.88;92.46
49515;BME280;35415;47.870;16.058;2023-01-29T05:47:48;98159.88;;;-0.89;92.51
49515;BME280;35415;47.870;16.058;2023-01-29T05:50:16;98159.88;;;-0.89;92.75
49515;BME280;35415;47.870;16.058;2023-01-29T05:52:44;98161.88;;;-0.92;92.68
49515;BME280;35415;47.870;16.058;2023-01-29T05:55:11;98161.06;;;-0.92;92.64
49515;BME280;35415;47.870;16.058;2023-01-29T05:57:39;98161.22;;;-0.94;92.44
49515;BME280;35415;47.870;16.058;2023-01-29T06:00:08;98172.97;;;-0.96;92.61
49515;BME280;35415;47.870;16.058;2023-01-29T06:02:37;98157.13;;;-0.96;92.57
49515;BME280;35415;47.870;16.058;2023-01-29T06:05:04;98157.28;;;-0.98;92.60
49515;BME280;35415;47.870;16.058;2023-01-29T06:07:32;98155.66;;;-0.99;92.49
49515;BME280;35415;47.870;16.058;2023-01-29T06:10:02;98154.81;;;-0.99;92.51
49515;BME280;35415;47.870;16.058;2023-01-29T06:12:29;98162.25;;;-1.03;92.69
49515;BME280;35415;47.870;16.058;2023-01-29T06:14:56;98157.13;;;-1.04;92.94
49515;BME280;35415;47.870;16.058;2023-01-29T06:17:23;98152.50;;;-1.02;92.80
49515;BME280;35415;47.870;16.058;2023-01-29T06:19:51;98153.50;;;-1.03;92.78
49515;BME280;35415;47.870;16.058;2023-01-29T06:22:18;98148.56;;;-1.06;93.11
49515;BME280;35415;47.870;16.058;2023-01-29T06:24:45;98162.41;;;-1.04;93.23
49515;BME280;35415;47.870;16.058;2023-01-29T06:27:14;98156.31;;;-1.05;93.06
49515;BME280;35415;47.870;16.058;2023-01-29T06:29:41;98153.69;;;-1.05;93.36
49515;BME280;35415;47.870;16.058;2023-01-29T06:32:08;98147.56;;;-1.05;93.37
49515;BME280;35415;47.870;16.058;2023-01-29T06:34:35;98150.03;;;-1.04;93.22
49515;BME280;35415;47.870;16.058;2023-01-29T06:37:02;98150.03;;;-1.04;93.12
49515;BME280;35415;47.870;16.058;2023-01-29T06:39:29;98144.94;;;-1.05;93.13
49515;BME280;35415;47.870;16.058;2023-01-29T06:41:56;98142.47;;;-1.07;92.97
49515;BME280;35415;47.870;16.058;2023-01-29T06:44:25;98140.81;;;-1.08;92.90
49515;BME280;35415;47.870;16.058;2023-01-29T06:46:52;98153.19;;;-1.08;93.29
49515;BME280;35415;47.870;16.058;2023-01-29T06:49:24;98133.84;;;-1.32;92.92
49515;BME280;35415;47.870;16.058;2023-01-29T06:52:02;98121.66;;;-1.33;92.98
49515;BME280;35415;47.870;16.058;2023-01-29T06:54:31;98118.19;;;-1.41;93.08
49515;BME280;35415;47.870;16.058;2023-01-29T06:56:58;98159.00;;;-1.13;93.18
49515;BME280;35415;47.870;16.058;2023-01-29T06:59:27;98161.13;;;-1.08;93.24
49515;BME280;35415;47.870;16.058;2023-01-29T07:01:54;98158.66;;;-1.10;93.19
49515;BME280;35415;47.870;16.058;2023-01-29T07:04:21;98159.47;;;-1.09;93.07
49515;BME280;35415;47.870;16.058;2023-01-29T07:06:48;98168.22;;;-1.09;93.20
49515;BME280;35415;47.870;16.058;2023-01-29T07:09:15;98168.22;;;-1.09;93.36
49515;BME280;35415;47.870;16.058;2023-01-29T07:11:42;98166.56;;;-1.10;93.28
49515;BME280;35415;47.870;16.058;2023-01-29T07:14:09;98169.22;;;-1.10;93.28
49515;BME280;35415;47.870;16.058;2023-01-29T07:16:40;98169.22;;;-1.10;93.52
49515;BME280;35415;47.870;16.058;2023-01-29T07:19:07;98168.22;;;-1.09;93.72
49515;BME280;35415;47.870;16.058;2023-01-29T07:22:09;98143.72;;;-1.26;93.98
49515;BME280;35415;47.870;16.058;2023-01-29T07:24:30;98125.41;;;-1.35;93.75
49515;BME280;35415;47.870;16.058;2023-01-29T07:27:13;98083.47;;;-1.61;93.85
49515;BME280;35415;47.870;16.058;2023-01-29T07:29:50;98097.78;;;-1.56;93.77
49515;BME280;35415;47.870;16.058;2023-01-29T07:32:53;98149.78;;;-1.17;94.01
49515;BME280;35415;47.870;16.058;2023-01-29T07:35:20;98103.22;;;-1.49;93.68
49515;BME280;35415;47.870;16.058;2023-01-29T07:38:16;98095.78;;;-1.45;93.71
49515;BME280;35415;47.870;16.058;2023-01-29T07:40:58;98090.88;;;-1.48;93.78
49515;BME280;35415;47.870;16.058;2023-01-29T07:43:25;98151.91;;;-1.12;93.77
49515;BME280;35415;47.870;16.058;2023-01-29T07:46:00;98177.41;;;-0.97;93.68
49515;BME280;35415;47.870;16.058;2023-01-29T07:48:30;98188.28;;;-0.92;93.80
49515;BME280;35415;47.870;16.058;2023-01-29T07:50:57;98184.66;;;-0.91;93.81
49515;BME280;35415;47.870;16.058;2023-01-29T07:53:25;98184.47;;;-0.89;93.73
49515;BME280;35415;47.870;16.058;2023-01-29T07:55:52;98160.59;;;-1.04;93.90
49515;BME280;35415;47.870;16.058;2023-01-29T07:58:20;98182.28;;;-0.85;93.82
49515;BME280;35415;47.870;16.058;2023-01-29T08:00:47;98178.66;;;-0.84;93.88
49515;BME280;35415;47.870;16.058;2023-01-29T08:03:16;98182.81;;;-0.90;93.72
49515;BME280;35415;47.870;16.058;2023-01-29T08:05:46;98155.94;;;-0.94;93.74
49515;BME280;35415;47.870;16.058;2023-01-29T08:08:14;98189.38;;;-0.78;93.52
49515;BME280;35415;47.870;16.058;2023-01-29T08:10:41;98145.09;;;-1.07;93.60
49515;BME280;35415;47.870;16.058;2023-01-29T08:13:09;98182.44;;;-0.79;93.61
49515;BME280;35415;47.870;16.058;2023-01-29T08:15:41;98197.13;;;-0.76;93.79
49515;BME280;35415;47.870;16.058;2023-01-29T08:18:10;98167.28;;;-0.85;93.55
49515;BME280;35415;47.870;16.058;2023-01-29T08:20:37;98189.31;;;-0.70;93.67
49515;BME280;35415;47.870;16.058;2023-01-29T08:23:12;98204.50;;;-0.64;93.80
49515;BME280;35415;47.870;16.058;2023-01-29T08:25:39;98196.22;;;-0.61;93.78
49515;BME280;35415;47.870;16.058;2023-01-29T08:28:07;98188.81;;;-0.65;93.61
49515;BME280;35415;47.870;16.058;2023-01-29T08:30:34;98184.34;;;-0.65;93.85
49515;BME280;35415;47.870;16.058;2023-01-29T08:33:03;98181.19;;;-0.60;93.91
49515;BME280;35415;47.870;16.058;2023-01-29T08:35:30;98199.28;;;-0.49;93.93
49515;BME280;35415;47.870;16.058;2023-01-29T08:37:58;98144.69;;;-0.87;93.70
49515;BME280;35415;47.870;16.058;2023-01-29T08:40:30;98178.16;;;-0.49;93.76
49515;BME280;35415;47.870;16.058;2023-01-29T08:42:57;98179.63;;;-0.46;93.50
49515;BME280;35415;47.870;16.058;2023-01-29T08:45:25;98122.88;;;-0.81;93.15
49515;BME280;35415;47.870;16.058;2023-01-29T08:47:52;98199.03;;;-0.31;93.35
49515;BME280;35415;47.870;16.058;2023-01-29T08:50:19;98194.56;;;-0.31;93.07
49515;BME280;35415;47.870;16.058;2023-01-29T08:52:46;98203.78;;;-0.26;93.11
49515;BME280;35415;47.870;16.058;2023-01-29T08:55:13;98196.47;;;-0.24;93.06
49515;BME280;35415;47.870;16.058;2023-01-29T08:57:42;98163.94;;;-0.48;93.12
49515;BME280;35415;47.870;16.058;2023-01-29T09:00:10;98195.38;;;-0.30;93.04
49515;BME280;35415;47.870;16.058;2023-01-29T09:02:37;98209.41;;;-0.07;93.43
49515;BME280;35415;47.870;16.058;2023-01-29T09:05:05;98184.69;;;-0.14;93.36
49515;BME280;35415;47.870;16.058;2023-01-29T09:07:32;98218.75;;;0.04;93.26
49515;BME280;35415;47.870;16.058;2023-01-29T09:09:59;98139.41;;;-0.34;93.55
49515;BME280;35415;47.870;16.058;2023-01-29T09:12:26;98207.28;;;0.12;92.78
49515;BME280;35415;47.870;16.058;2023-01-29T09:14:55;98221.16;;;0.14;92.82
49515;BME280;35415;47.870;16.058;2023-01-29T09:17:22;98212.16;;;0.23;92.45
49515;BME280;35415;47.870;16.058;2023-01-29T09:19:49;98214.44;;;0.26;92.45
49515;BME280;35415;47.870;16.058;2023-01-29T09:22:17;98221.84;;;0.30;91.98
49515;BME280;35415;47.870;16.058;2023-01-29T09:24:44;98184.66;;;0.09;92.20
49515;BME280;35415;47.870;16.058;2023-01-29T09:27:14;98171.34;;;0.03;91.57
49515;BME280;35415;47.870;16.058;2023-01-29T09:29:41;98211.34;;;0.22;91.73
49515;BME280;35415;47.870;16.058;2023-01-29T09:32:11;98219.13;;;0.39;91.54
49515;BME280;35415;47.870;16.058;2023-01-29T09:34:38;98183.66;;;0.10;90.94
49515;BME280;35415;47.870;16.058;2023-01-29T09:37:08;98134.09;;;-0.11;90.99
49515;BME280;35415;47.870;16.058;2023-01-29T09:39:36;98218.75;;;0.42;90.83
49515;BME280;35415;47.870;16.058;2023-01-29T09:42:09;98219.69;;;0.49;91.15
49515;BME280;35415;47.870;16.058;2023-01-29T09:44:48;98161.03;;;0.08;90.84
49515;BME280;35415;47.870;16.058;2023-01-29T09:47:23;98226.47;;;0.51;90.96
49515;BME280;35415;47.870;16.058;2023-01-29T09:49:57;98200.59;;;0.39;90.74
49515;BME280;35415;47.870;16.058;2023-01-29T09:52:26;98150.34;;;0.16;90.69
49515;BME280;35415;47.870;16.058;2023-01-29T09:55:01;98213.78;;;0.62;90.75
49515;BME280;35415;47.870;16.058;2023-01-29T09:57:44;98198.31;;;0.50;90.81
49515;BME280;35415;47.870;16.058;2023-01-29T10:00:14;98220.63;;;0.71;90.47
49515;BME280;35415;47.870;16.058;2023-01-29T10:02:56;98187.41;;;0.53;90.59
49515;BME280;35415;47.870;16.058;2023-01-29T10:05:40;98217.34;;;0.69;90.78
49515;BME280;35415;47.870;16.058;2023-01-29T10:11:24;98219.91;;;0.77;90.78
49515;BME280;35415;47.870;16.058;2023-01-29T10:14:09;98219.25;;;0.75;89.88
49515;BME280;35415;47.870;16.058;2023-01-29T10:16:47;98187.66;;;0.58;89.82
49515;BME280;35415;47.870;16.058;2023-01-29T10:19:31;98199.47;;;0.71;89.48
49515;BME280;35415;47.870;16.058;2023-01-29T10:22:16;98236.19;;;1.03;89.30
49515;BME280;35415;47.870;16.058;2023-01-29T10:24:52;98162.66;;;0.61;89.81
49515;BME280;35415;47.870;16.058;2023-01-29T10:27:20;98140.28;;;0.64;89.27
49515;BME280;35415;47.870;16.058;2023-01-29T10:29:51;98193.50;;;0.98;89.07
49515;BME280;35415;47.870;16.058;2023-01-29T10:32:21;98212.34;;;1.18;88.88
49515;BME280;35415;47.870;16.058;2023-01-29T10:34:53;98218.34;;;1.27;88.52
49515;BME280;35415;47.870;16.058;2023-01-29T10:37:24;98199.97;;;1.25;89.01
49515;BME280;35415;47.870;16.058;2023-01-29T10:39:52;98201.69;;;1.33;88.79
49515;BME280;35415;47.870;16.058;2023-01-29T10:42:25;98218.38;;;1.48;88.61
49515;BME280;35415;47.870;16.058;2023-01-29T10:45:11;98214.00;;;1.55;88.01
49515;BME280;35415;47.870;16.058;2023-01-29T10:47:57;98210.00;;;1.66;88.42
49515;BME280;35415;47.870;16.058;2023-01-29T10:50:53;98205.22;;;1.76;88.32
49515;BME280;35415;47.870;16.058;2023-01-29T10:53:33;98188.56;;;1.82;88.65
49515;BME280;35415;47.870;16.058;2023-01-29T10:56:16;98119.03;;;1.44;87.22
49515;BME280;35415;47.870;16.058;2023-01-29T10:58:54;98168.78;;;1.85;86.66
49515;BME280;35415;47.870;16.058;2023-01-29T11:01:22;98160.47;;;1.88;85.92
49515;BME280;35415;47.870;16.058;2023-01-29T11:03:57;98134.50;;;1.83;86.09
49515;BME280;35415;47.870;16.058;2023-01-29T11:06:32;98185.47;;;2.21;86.68
49515;BME280;35415;47.870;16.058;2023-01-29T11:09:05;98154.94;;;2.10;85.26
49515;BME280;35415;47.870;16.058;2023-01-29T11:11:39;98140.81;;;2.03;84.75
49515;BME280;35415;47.870;16.058;2023-01-29T11:14:11;98117.69;;;1.97;84.90
49515;BME280;35415;47.870;16.058;2023-01-29T11:16:41;98159.66;;;2.36;85.28
49515;BME280;35415;47.870;16.058;2023-01-29T11:19:09;98130.47;;;2.15;84.23
49515;BME280;35415;47.870;16.058;2023-01-29T11:21:54;98156.59;;;2.39;84.75
49515;BME280;35415;47.870;16.058;2023-01-29T11:24:22;98156.59;;;2.39;84.34
49515;BME280;35415;47.870;16.058;2023-01-29T11:26:51;98146.81;;;2.40;83.74
49515;BME280;35415;47.870;16.058;2023-01-29T11:29:31;98142.94;;;2.42;83.68
49515;BME280;35415;47.870;16.058;2023-01-29T11:32:03;98110.75;;;2.24;83.31
49515;BME280;35415;47.870;16.058;2023-01-29T11:34:31;98137.63;;;2.42;83.54
49515;BME280;35415;47.870;16.058;2023-01-29T11:37:01;98136.00;;;2.41;83.12
49515;BME280;35415;47.870;16.058;2023-01-29T11:39:29;98118.19;;;2.35;82.72
49515;BME280;35415;47.870;16.058;2023-01-29T11:41:58;98073.50;;;2.11;83.10
49515;BME280;35415;47.870;16.058;2023-01-29T11:44:29;98095.69;;;2.31;83.10
49515;BME280;35415;47.870;16.058;2023-01-29T11:47:10;98032.13;;;1.89;82.94
49515;BME280;35415;47.870;16.058;2023-01-29T11:49:39;98033.13;;;1.88;82.62
49515;BME280;35415;47.870;16.058;2023-01-29T11:52:12;98064.94;;;2.16;82.47
49515;BME280;35415;47.870;16.058;2023-01-29T11:54:44;98037.84;;;1.92;82.32
49515;BME280;35415;47.870;16.058;2023-01-29T11:57:27;98031.09;;;1.90;82.95
49515;BME280;35415;47.870;16.058;2023-01-29T11:59:56;98077.34;;;2.36;83.96
49515;BME280;35415;47.870;16.058;2023-01-29T12:02:29;98061.72;;;2.20;82.57
49515;BME280;35415;47.870;16.058;2023-01-29T12:05:01;98055.81;;;2.25;82.91
49515;BME280;35415;47.870;16.058;2023-01-29T12:07:30;98032.88;;;2.10;83.71
49515;BME280;35415;47.870;16.058;2023-01-29T12:10:00;98061.78;;;2.33;84.15
49515;BME280;35415;47.870;16.058;2023-01-29T12:12:30;98059.00;;;2.41;84.16
49515;BME280;35415;47.870;16.058;2023-01-29T12:15:03;97968.28;;;1.97;83.86
49515;BME280;35415;47.870;16.058;2023-01-29T12:17:32;97981.63;;;2.10;84.66
49515;BME280;35415;47.870;16.058;2023-01-29T12:20:08;97977.63;;;2.27;83.83
49515;BME280;35415;47.870;16.058;2023-01-29T12:22:44;97994.66;;;2.39;84.62
49515;BME280;35415;47.870;16.058;2023-01-29T12:25:19;98022.16;;;2.73;82.94
49515;BME280;35415;47.870;16.058;2023-01-29T12:27:53;98012.75;;;2.77;83.20
49515;BME280;35415;47.870;16.058;2023-01-29T12:30:27;98038.81;;;3.08;82.81
49515;BME280;35415;47.870;16.058;2023-01-29T12:33:02;97991.75;;;2.89;81.69
49515;BME280;35415;47.870;16.058;2023-01-29T12:35:35;98002.41;;;3.02;81.62
49515;BME280;35415;47.870;16.058;2023-01-29T12:38:11;98019.03;;;3.24;81.03
49515;BME280;35415;47.870;16.058;2023-01-29T12:40:50;97941.44;;;2.81;80.99
49515;BME280;35415;47.870;16.058;2023-01-29T12:43:26;98002.66;;;3.27;80.90
49515;BME280;35415;47.870;16.058;2023-01-29T12:46:02;97963.19;;;3.04;80.36
49515;BME280;35415;47.870;16.058;2023-01-29T12:48:37;97986.91;;;3.32;80.80
49515;BME280;35415;47.870;16.058;2023-01-29T12:51:07;97936.19;;;3.07;80.50
49515;BME280;35415;47.870;16.058;2023-01-29T12:53:42;97996.56;;;3.53;80.43
49515;BME280;35415;47.870;16.058;2023-01-29T12:56:15;97936.41;;;3.25;80.95
49515;BME280;35415;47.870;16.058;2023-01-29T12:58:50;97972.59;;;3.59;80.09
49515;BME280;35415;47.870;16.058;2023-01-29T13:01:24;97936.59;;;3.50;79.59
49515;BME280;35415;47.870;16.058;2023-01-29T13:04:01;97948.66;;;3.73;79.44
49515;BME280;35415;47.870;16.058;2023-01-29T13:06:35;97953.75;;;3.74;77.74
49515;BME280;35415;47.870;16.058;2023-01-29T13:09:16;97895.47;;;3.53;78.84
49515;BME280;35415;47.870;16.058;2023-01-29T13:11:50;97931.88;;;3.72;78.43
49515;BME280;35415;47.870;16.058;2023-01-29T13:14:22;97943.69;;;3.96;79.55
49515;BME280;35415;47.870;16.058;2023-01-29T13:16:53;97965.16;;;4.01;78.85
49515;BME280;35415;47.870;16.058;2023-01-29T13:19:25;97925.06;;;3.89;78.83
49515;BME280;35415;47.870;16.058;2023-01-29T13:21:58;97904.44;;;3.72;77.83
49515;BME280;35415;47.870;16.058;2023-01-29T13:24:38;97974.28;;;4.32;77.90
49515;BME280;35415;47.870;16.058;2023-01-29T13:27:18;97945.84;;;4.26;77.59